sensor_id;sensor_type;location;lat;lon;timestamp;temperature;humidity
18139;DHT22;9195;53.176;9.486;2023-01-08T00:01:22;9.10;99.90
18139;DHT22;9195;53.176;9.486;2023-01-08T00:03:48;9.00;99.90
18139;DHT22;9195;53.176;9.486;2023-01-08T00:06:16;9.20;99.90
18139;DHT22;9195;53.176;9.486;2023-01-08T00:08:43;9.20;99.90
18139;DHT22;9195;53.176;9.486;2023-01-08T00:11:09;9.20;99.90
18139;DHT22;9195;53.176;9.486;2023-01-08T00:13:34;9.20;99.90
18139;DHT22;9195;53.176;9.486;2023-01-08T00:16:05;9.20;99.90
18139;DHT22;9195;53.176;9.486;2023-01-08T00:18:31;9.20;99.90
18139;DHT22;9195;53.176;9.486;2023-01-08T00:20:57;9.20;99.90
18139;DHT22;9195;53.176;9.486;2023-01-08T00:23:22;9.10;99.90
18139;DHT22;9195;53.176;9.486;2023-01-08T00:25:48;9.10;99.90
18139;DHT22;9195;53.176;9.486;2023-01-08T00:28:14;9.10;99.90
18139;DHT22;9195;53.176;9.486;2023-01-08T00:30:40;9.10;99.90
18139;DHT22;9195;53.176;9.486;2023-01-08T00:33:06;9.00;99.90
18139;DHT22;9195;53.176;9.486;2023-01-08T00:35:31;9.00;99.90
18139;DHT22;9195;53.176;9.486;2023-01-08T00:37:57;9.00;99.90
18139;DHT22;9195;53.176;9.486;2023-01-08T00:40:23;9.20;99.90
18139;DHT22;9195;53.176;9.486;2023-01-08T00:42:48;9.10;99.90
18139;DHT22;9195;53.176;9.486;2023-01-08T00:45:14;9.10;99.90
18139;DHT22;9195;53.176;9.486;2023-01-08T00:47:40;9.10;99.90
18139;DHT22;9195;53.176;9.486;2023-01-08T00:50:05;9.10;99.90
18139;DHT22;9195;53.176;9.486;2023-01-08T00:52:31;9.20;99.90
18139;DHT22;9195;53.176;9.486;2023-01-08T00:54:57;9.20;99.90
18139;DHT22;9195;53.176;9.486;2023-01-08T00:57:22;9.30;99.90
18139;DHT22;9195;53.176;9.486;2023-01-08T00:59:48;9.30;99.90
18139;DHT22;9195;53.176;9.486;2023-01-08T01:02:14;9.30;99.90
18139;DHT22;9195;53.176;9.486;2023-01-08T01:04:39;9.30;99.90
18139;DHT22;9195;53.176;9.486;2023-01-08T01:07:05;9.40;99.90
18139;DHT22;9195;53.176;9.486;2023-01-08T01:09:30;9.40;99.90
18139;DHT22;9195;53.176;9.486;2023-01-08T01:11:56;9.40;99.90
18139;DHT22;9195;53.176;9.486;2023-01-08T01:14:22;9.30;99.90
18139;DHT22;9195;53.176;9.486;2023-01-08T01:16:47;9.50;99.90
18139;DHT22;9195;53.176;9.486;2023-01-08T01:19:14;9.40;99.90
18139;DHT22;9195;53.176;9.486;2023-01-08T01:21:40;9.40;99.90
18139;DHT22;9195;53.176;9.486;2023-01-08T01:24:06;9.50;99.90
18139;DHT22;9195;53.176;9.486;2023-01-08T01:26:32;9.50;99.90
18139;DHT22;9195;53.176;9.486;2023-01-08T01:28:58;9.50;99.90
18139;DHT22;9195;53.176;9.486;2023-01-08T01:31:26;9.50;99.90
18139;DHT22;9195;53.176;9.486;2023-01-08T01:33:52;9.50;99.90
18139;DHT22;9195;53.176;9.486;2023-01-08T01:36:19;9.60;99.90
18139;DHT22;9195;53.176;9.486;2023-01-08T01:38:49;9.60;99.90
18139;DHT22;9195;53.176;9.486;2023-01-08T01:43:51;9.50;99.90
18139;DHT22;9195;53.176;9.486;2023-01-08T01:46:25;9.60;99.90
18139;DHT22;9195;53.176;9.486;2023-01-08T01:48:54;9.60;99.90
18139;DHT22;9195;53.176;9.486;2023-01-08T01:51:21;9.60;99.90
18139;DHT22;9195;53.176;9.486;2023-01-08T01:53:48;9.60;99.90
18139;DHT22;9195;53.176;9.486;2023-01-08T01:56:14;9.60;99.90
18139;DHT22;9195;53.176;9.486;2023-01-08T01:58:40;9.60;99.90
18139;DHT22;9195;53.176;9.486;2023-01-08T02:01:07;9.60;99.90
18139;DHT22;9195;53.176;9.486;2023-01-08T02:03:36;9.60;99.90
18139;DHT22;9195;53.176;9.486;2023-01-08T02:12:01;9.60;99.90
18139;DHT22;9195;53.176;9.486;2023-01-08T02:15:11;9.60;99.90
18139;DHT22;9195;53.176;9.486;2023-01-08T02:20:36;9.70;99.90
18139;DHT22;9195;53.176;9.486;2023-01-08T02:31:31;9.70;99.90
18139;DHT22;9195;53.176;9.486;2023-01-08T02:33:57;9.70;99.90
18139;DHT22;9195;53.176;9.486;2023-01-08T02:41:53;9.80;99.90
18139;DHT22;9195;53.176;9.486;2023-01-08T02:45:07;9.70;99.90
18139;DHT22;9195;53.176;9.486;2023-01-08T02:51:03;9.80;99.90
18139;DHT22;9195;53.176;9.486;2023-01-08T02:53:40;9.80;99.90
18139;DHT22;9195;53.176;9.486;2023-01-08T02:56:11;9.80;99.90
18139;DHT22;9195;53.176;9.486;2023-01-08T02:58:38;9.80;99.90
18139;DHT22;9195;53.176;9.486;2023-01-08T03:01:07;9.80;99.90
18139;DHT22;9195;53.176;9.486;2023-01-08T03:03:34;9.80;99.90
18139;DHT22;9195;53.176;9.486;2023-01-08T03:06:04;9.80;99.90
18139;DHT22;9195;53.176;9.486;2023-01-08T03:08:33;9.90;99.90
18139;DHT22;9195;53.176;9.486;2023-01-08T03:11:04;9.80;99.90
18139;DHT22;9195;53.176;9.486;2023-01-08T03:16:02;9.80;99.90
18139;DHT22;9195;53.176;9.486;2023-01-08T03:18:34;9.80;99.90
18139;DHT22;9195;53.176;9.486;2023-01-08T03:21:02;9.80;99.90
18139;DHT22;9195;53.176;9.486;2023-01-08T03:23:32;9.80;99.90
18139;DHT22;9195;53.176;9.486;2023-01-08T03:26:00;9.80;99.90
18139;DHT22;9195;53.176;9.486;2023-01-08T03:28:31;9.80;99.90
18139;DHT22;9195;53.176;9.486;2023-01-08T03:30:58;9.80;99.90
18139;DHT22;9195;53.176;9.486;2023-01-08T03:33:24;9.80;99.90
18139;DHT22;9195;53.176;9.486;2023-01-08T03:35:54;9.80;99.90
18139;DHT22;9195;53.176;9.486;2023-01-08T03:38:27;9.80;99.90
18139;DHT22;9195;53.176;9.486;2023-01-08T03:40:56;9.90;99.90
18139;DHT22;9195;53.176;9.486;2023-01-08T03:43:24;9.80;99.90
18139;DHT22;9195;53.176;9.486;2023-01-08T03:45:56;9.80;99.90
18139;DHT22;9195;53.176;9.486;2023-01-08T03:48:24;9.80;99.90
18139;DHT22;9195;53.176;9.486;2023-01-08T03:50:50;9.80;99.90
18139;DHT22;9195;53.176;9.486;2023-01-08T03:53:16;9.80;99.90
18139;DHT22;9195;53.176;9.486;2023-01-08T03:55:42;9.80;99.90
18139;DHT22;9195;53.176;9.486;2023-01-08T03:58:07;9.90;99.90
18139;DHT22;9195;53.176;9.486;2023-01-08T04:00:33;9.80;99.90
18139;DHT22;9195;53.176;9.486;2023-01-08T04:02:58;9.90;99.90
18139;DHT22;9195;53.176;9.486;2023-01-08T04:05:24;9.90;99.90
18139;DHT22;9195;53.176;9.486;2023-01-08T04:07:50;9.80;99.90
18139;DHT22;9195;53.176;9.486;2023-01-08T04:10:15;9.70;99.90
18139;DHT22;9195;53.176;9.486;2023-01-08T04:12:42;9.70;99.90
18139;DHT22;9195;53.176;9.486;2023-01-08T04:15:08;9.60;99.90
18139;DHT22;9195;53.176;9.486;2023-01-08T04:17:34;9.60;99.90
18139;DHT22;9195;53.176;9.486;2023-01-08T04:19:59;9.60;99.90
18139;DHT22;9195;53.176;9.486;2023-01-08T04:22:25;9.60;99.90
18139;DHT22;9195;53.176;9.486;2023-01-08T04:24:50;9.50;99.90
18139;DHT22;9195;53.176;9.486;2023-01-08T04:27:16;9.50;99.90
18139;DHT22;9195;53.176;9.486;2023-01-08T04:29:41;9.50;99.90
18139;DHT22;9195;53.176;9.486;2023-01-08T04:32:07;9.50;99.90
18139;DHT22;9195;53.176;9.486;2023-01-08T04:34:33;9.50;99.90
18139;DHT22;9195;53.176;9.486;2023-01-08T04:36:58;9.40;99.90
18139;DHT22;9195;53.176;9.486;2023-01-08T04:39:24;9.40;99.90
18139;DHT22;9195;53.176;9.486;2023-01-08T04:41:49;9.40;99.90
18139;DHT22;9195;53.176;9.486;2023-01-08T04:44:15;9.30;99.90
18139;DHT22;9195;53.176;9.486;2023-01-08T04:46:41;9.30;99.90
18139;DHT22;9195;53.176;9.486;2023-01-08T04:49:06;9.30;99.90
18139;DHT22;9195;53.176;9.486;2023-01-08T04:51:32;9.30;99.90
18139;DHT22;9195;53.176;9.486;2023-01-08T04:53:57;9.30;99.90
18139;DHT22;9195;53.176;9.486;2023-01-08T04:56:23;9.20;99.90
18139;DHT22;9195;53.176;9.486;2023-01-08T04:58:48;9.10;99.90
18139;DHT22;9195;53.176;9.486;2023-01-08T05:01:20;9.20;99.90
18139;DHT22;9195;53.176;9.486;2023-01-08T05:03:46;9.20;99.90
18139;DHT22;9195;53.176;9.486;2023-01-08T05:06:11;9.20;99.90
18139;DHT22;9195;53.176;9.486;2023-01-08T05:08:37;9.10;99.90
18139;DHT22;9195;53.176;9.486;2023-01-08T05:11:03;9.10;99.90
18139;DHT22;9195;53.176;9.486;2023-01-08T05:13:29;9.10;99.90
18139;DHT22;9195;53.176;9.486;2023-01-08T05:15:58;9.10;99.90
18139;DHT22;9195;53.176;9.486;2023-01-08T05:18:24;9.00;99.90
18139;DHT22;9195;53.176;9.486;2023-01-08T05:20:50;9.00;99.90
18139;DHT22;9195;53.176;9.486;2023-01-08T05:23:15;9.00;99.90
18139;DHT22;9195;53.176;9.486;2023-01-08T05:25:41;9.00;99.90
18139;DHT22;9195;53.176;9.486;2023-01-08T05:28:06;9.00;99.90
18139;DHT22;9195;53.176;9.486;2023-01-08T05:30:32;9.00;99.90
18139;DHT22;9195;53.176;9.486;2023-01-08T05:32:58;9.00;99.90
18139;DHT22;9195;53.176;9.486;2023-01-08T05:35:23;9.00;99.90
18139;DHT22;9195;53.176;9.486;2023-01-08T05:37:49;9.00;99.90
18139;DHT22;9195;53.176;9.486;2023-01-08T05:40:14;9.00;99.90
18139;DHT22;9195;53.176;9.486;2023-01-08T05:42:40;9.00;99.90
18139;DHT22;9195;53.176;9.486;2023-01-08T05:45:06;9.00;99.90
18139;DHT22;9195;53.176;9.486;2023-01-08T05:47:32;9.00;99.90
18139;DHT22;9195;53.176;9.486;2023-01-08T05:49:58;8.90;99.90
18139;DHT22;9195;53.176;9.486;2023-01-08T05:52:24;8.90;99.90
18139;DHT22;9195;53.176;9.486;2023-01-08T05:54:50;8.90;99.90
18139;DHT22;9195;53.176;9.486;2023-01-08T05:57:15;8.90;99.90
18139;DHT22;9195;53.176;9.486;2023-01-08T05:59:41;8.90;99.90
18139;DHT22;9195;53.176;9.486;2023-01-08T06:02:07;8.90;99.90
18139;DHT22;9195;53.176;9.486;2023-01-08T06:04:33;8.90;99.90
18139;DHT22;9195;53.176;9.486;2023-01-08T06:06:59;8.90;99.90
18139;DHT22;9195;53.176;9.486;2023-01-08T06:09:24;9.00;99.90
18139;DHT22;9195;53.176;9.486;2023-01-08T06:11:50;9.00;99.90
18139;DHT22;9195;53.176;9.486;2023-01-08T06:14:15;9.00;99.90
18139;DHT22;9195;53.176;9.486;2023-01-08T06:16:44;9.00;99.90
18139;DHT22;9195;53.176;9.486;2023-01-08T06:19:10;9.00;99.90
18139;DHT22;9195;53.176;9.486;2023-01-08T06:21:36;9.00;99.90
18139;DHT22;9195;53.176;9.486;2023-01-08T06:24:02;8.90;99.90
18139;DHT22;9195;53.176;9.486;2023-01-08T06:26:28;8.90;99.90
18139;DHT22;9195;53.176;9.486;2023-01-08T06:28:54;8.90;99.90
18139;DHT22;9195;53.176;9.486;2023-01-08T06:31:19;8.90;99.90
18139;DHT22;9195;53.176;9.486;2023-01-08T06:33:45;9.00;99.90
18139;DHT22;9195;53.176;9.486;2023-01-08T06:36:10;9.00;99.90
18139;DHT22;9195;53.176;9.486;2023-01-08T06:38:36;9.00;99.90
18139;DHT22;9195;53.176;9.486;2023-01-08T06:41:07;9.00;99.90
18139;DHT22;9195;53.176;9.486;2023-01-08T06:43:34;9.00;99.90
18139;DHT22;9195;53.176;9.486;2023-01-08T06:46:00;9.10;99.90
18139;DHT22;9195;53.176;9.486;2023-01-08T06:48:26;9.10;99.90
18139;DHT22;9195;53.176;9.486;2023-01-08T06:50:52;9.20;99.90
18139;DHT22;9195;53.176;9.486;2023-01-08T06:53:18;9.20;99.90
18139;DHT22;9195;53.176;9.486;2023-01-08T06:55:44;9.20;99.90
18139;DHT22;9195;53.176;9.486;2023-01-08T06:58:10;9.30;99.90
18139;DHT22;9195;53.176;9.486;2023-01-08T07:00:37;9.30;99.90
18139;DHT22;9195;53.176;9.486;2023-01-08T07:03:03;9.40;99.90
18139;DHT22;9195;53.176;9.486;2023-01-08T07:05:29;9.40;99.90
18139;DHT22;9195;53.176;9.486;2023-01-08T07:07:54;9.40;99.90
18139;DHT22;9195;53.176;9.486;2023-01-08T07:10:20;9.40;99.90
18139;DHT22;9195;53.176;9.486;2023-01-08T07:12:47;9.50;99.90
18139;DHT22;9195;53.176;9.486;2023-01-08T07:15:12;9.50;99.90
18139;DHT22;9195;53.176;9.486;2023-01-08T07:17:38;9.50;99.90
18139;DHT22;9195;53.176;9.486;2023-01-08T07:20:04;9.50;99.90
18139;DHT22;9195;53.176;9.486;2023-01-08T07:22:30;9.50;99.90
18139;DHT22;9195;53.176;9.486;2023-01-08T07:24:55;9.50;99.90
18139;DHT22;9195;53.176;9.486;2023-01-08T07:27:21;9.50;99.90
18139;DHT22;9195;53.176;9.486;2023-01-08T07:29:46;9.50;99.90
18139;DHT22;9195;53.176;9.486;2023-01-08T07:32:12;9.50;99.90
18139;DHT22;9195;53.176;9.486;2023-01-08T07:34:37;9.50;99.90
18139;DHT22;9195;53.176;9.486;2023-01-08T07:37:03;9.60;99.90
18139;DHT22;9195;53.176;9.486;2023-01-08T07:39:29;9.50;99.90
18139;DHT22;9195;53.176;9.486;2023-01-08T07:41:54;9.50;99.90
18139;DHT22;9195;53.176;9.486;2023-01-08T07:44:20;9.50;99.90
18139;DHT22;9195;53.176;9.486;2023-01-08T07:46:46;9.50;99.90
18139;DHT22;9195;53.176;9.486;2023-01-08T07:49:11;9.50;99.90
18139;DHT22;9195;53.176;9.486;2023-01-08T07:51:37;9.60;99.90
18139;DHT22;9195;53.176;9.486;2023-01-08T07:54:02;9.60;99.90
18139;DHT22;9195;53.176;9.486;2023-01-08T07:56:28;9.60;99.90
18139;DHT22;9195;53.176;9.486;2023-01-08T07:58:54;9.60;99.90
18139;DHT22;9195;53.176;9.486;2023-01-08T08:01:19;9.60;99.90
18139;DHT22;9195;53.176;9.486;2023-01-08T08:03:45;9.60;99.90
18139;DHT22;9195;53.176;9.486;2023-01-08T08:06:10;9.60;99.90
18139;DHT22;9195;53.176;9.486;2023-01-08T08:08:36;9.60;99.90
18139;DHT22;9195;53.176;9.486;2023-01-08T08:11:02;9.60;99.90
18139;DHT22;9195;53.176;9.486;2023-01-08T08:13:28;9.70;99.90
18139;DHT22;9195;53.176;9.486;2023-01-08T08:15:53;9.70;99.90
18139;DHT22;9195;53.176;9.486;2023-01-08T08:18:19;9.70;99.90
18139;DHT22;9195;53.176;9.486;2023-01-08T08:20:44;9.70;99.90
18139;DHT22;9195;53.176;9.486;2023-01-08T08:23:12;9.80;99.90
18139;DHT22;9195;53.176;9.486;2023-01-08T08:25:40;9.70;99.90
18139;DHT22;9195;53.176;9.486;2023-01-08T08:28:06;9.70;99.90
18139;DHT22;9195;53.176;9.486;2023-01-08T08:30:34;9.80;99.90
18139;DHT22;9195;53.176;9.486;2023-01-08T08:33:01;9.80;99.90
18139;DHT22;9195;53.176;9.486;2023-01-08T08:35:28;9.70;99.90
18139;DHT22;9195;53.176;9.486;2023-01-08T08:37:54;9.70;99.90
18139;DHT22;9195;53.176;9.486;2023-01-08T08:40:20;9.70;99.90
18139;DHT22;9195;53.176;9.486;2023-01-08T08:42:46;9.60;99.90
18139;DHT22;9195;53.176;9.486;2023-01-08T08:45:12;9.60;99.90
18139;DHT22;9195;53.176;9.486;2023-01-08T08:47:38;9.60;99.90
18139;DHT22;9195;53.176;9.486;2023-01-08T08:50:05;9.60;99.90
18139;DHT22;9195;53.176;9.486;2023-01-08T08:52:32;9.60;99.90
18139;DHT22;9195;53.176;9.486;2023-01-08T08:54:59;9.60;99.90
18139;DHT22;9195;53.176;9.486;2023-01-08T08:57:25;9.50;99.90
18139;DHT22;9195;53.176;9.486;2023-01-08T08:59:51;9.60;99.90
18139;DHT22;9195;53.176;9.486;2023-01-08T09:02:17;9.50;99.90
18139;DHT22;9195;53.176;9.486;2023-01-08T09:04:43;9.60;99.90
18139;DHT22;9195;53.176;9.486;2023-01-08T09:07:08;9.60;99.90
18139;DHT22;9195;53.176;9.486;2023-01-08T09:09:34;9.60;99.90
18139;DHT22;9195;53.176;9.486;2023-01-08T09:11:59;9.50;99.90
18139;DHT22;9195;53.176;9.486;2023-01-08T09:14:25;9.50;99.90
18139;DHT22;9195;53.176;9.486;2023-01-08T09:16:51;9.50;99.90
18139;DHT22;9195;53.176;9.486;2023-01-08T09:19:16;9.50;99.90
18139;DHT22;9195;53.176;9.486;2023-01-08T09:21:42;9.50;99.90
18139;DHT22;9195;53.176;9.486;2023-01-08T09:24:08;9.50;99.90
18139;DHT22;9195;53.176;9.486;2023-01-08T09:26:33;9.40;99.90
18139;DHT22;9195;53.176;9.486;2023-01-08T09:28:59;9.40;99.90
18139;DHT22;9195;53.176;9.486;2023-01-08T09:31:25;9.40;99.90
18139;DHT22;9195;53.176;9.486;2023-01-08T09:33:51;9.30;99.90
18139;DHT22;9195;53.176;9.486;2023-01-08T09:36:17;9.20;99.90
18139;DHT22;9195;53.176;9.486;2023-01-08T09:38:43;9.30;99.90
18139;DHT22;9195;53.176;9.486;2023-01-08T09:41:23;9.20;99.90
18139;DHT22;9195;53.176;9.486;2023-01-08T09:43:52;9.20;99.90
18139;DHT22;9195;53.176;9.486;2023-01-08T09:46:20;9.30;99.90
18139;DHT22;9195;53.176;9.486;2023-01-08T09:48:47;9.20;99.90
18139;DHT22;9195;53.176;9.486;2023-01-08T09:51:15;9.30;99.90
18139;DHT22;9195;53.176;9.486;2023-01-08T09:53:42;9.30;99.90
18139;DHT22;9195;53.176;9.486;2023-01-08T09:56:14;9.30;99.90
18139;DHT22;9195;53.176;9.486;2023-01-08T09:58:45;9.30;99.90
18139;DHT22;9195;53.176;9.486;2023-01-08T10:01:17;9.30;99.90
18139;DHT22;9195;53.176;9.486;2023-01-08T10:03:55;9.30;99.90
18139;DHT22;9195;53.176;9.486;2023-01-08T10:06:22;9.30;99.90
18139;DHT22;9195;53.176;9.486;2023-01-08T10:08:49;9.30;99.90
18139;DHT22;9195;53.176;9.486;2023-01-08T10:11:15;9.30;99.90
18139;DHT22;9195;53.176;9.486;2023-01-08T10:13:46;9.40;99.90
18139;DHT22;9195;53.176;9.486;2023-01-08T10:16:27;9.50;99.90
18139;DHT22;9195;53.176;9.486;2023-01-08T10:18:54;9.70;99.90
18139;DHT22;9195;53.176;9.486;2023-01-08T10:21:26;9.90;99.90
18139;DHT22;9195;53.176;9.486;2023-01-08T10:23:53;10.00;99.90
18139;DHT22;9195;53.176;9.486;2023-01-08T10:26:27;10.10;99.90
18139;DHT22;9195;53.176;9.486;2023-01-08T10:29:10;10.10;99.90
18139;DHT22;9195;53.176;9.486;2023-01-08T10:31:51;10.10;99.90
18139;DHT22;9195;53.176;9.486;2023-01-08T10:34:31;10.20;99.90
18139;DHT22;9195;53.176;9.486;2023-01-08T10:40:21;10.60;99.90
18139;DHT22;9195;53.176;9.486;2023-01-08T10:42:48;10.50;99.90
18139;DHT22;9195;53.176;9.486;2023-01-08T10:45:25;10.40;99.90
18139;DHT22;9195;53.176;9.486;2023-01-08T10:47:59;10.90;99.90
18139;DHT22;9195;53.176;9.486;2023-01-08T10:50:28;11.00;99.90
18139;DHT22;9195;53.176;9.486;2023-01-08T10:53:03;11.30;99.90
18139;DHT22;9195;53.176;9.486;2023-01-08T10:55:34;12.10;99.90
18139;DHT22;9195;53.176;9.486;2023-01-08T10:58:12;12.50;99.90
18139;DHT22;9195;53.176;9.486;2023-01-08T11:00:38;13.00;99.90
18139;DHT22;9195;53.176;9.486;2023-01-08T11:03:19;13.20;99.90
18139;DHT22;9195;53.176;9.486;2023-01-08T11:05:46;12.50;99.90
18139;DHT22;9195;53.176;9.486;2023-01-08T11:08:15;11.90;99.90
18139;DHT22;9195;53.176;9.486;2023-01-08T11:10:42;11.70;99.90
18139;DHT22;9195;53.176;9.486;2023-01-08T11:13:18;11.60;99.90
18139;DHT22;9195;53.176;9.486;2023-01-08T11:15:44;11.60;99.90
18139;DHT22;9195;53.176;9.486;2023-01-08T11:18:22;11.60;99.90
18139;DHT22;9195;53.176;9.486;2023-01-08T11:20:50;11.90;99.90
18139;DHT22;9195;53.176;9.486;2023-01-08T11:23:24;12.20;99.90
18139;DHT22;9195;53.176;9.486;2023-01-08T11:26:10;12.10;99.90
18139;DHT22;9195;53.176;9.486;2023-01-08T11:28:49;12.20;99.90
18139;DHT22;9195;53.176;9.486;2023-01-08T11:31:23;13.20;99.90
18139;DHT22;9195;53.176;9.486;2023-01-08T11:33:56;14.40;99.90
18139;DHT22;9195;53.176;9.486;2023-01-08T11:36:31;15.50;99.90
18139;DHT22;9195;53.176;9.486;2023-01-08T11:38:58;16.50;99.90
18139;DHT22;9195;53.176;9.486;2023-01-08T11:41:43;17.20;99.90
18139;DHT22;9195;53.176;9.486;2023-01-08T11:44:16;18.00;99.90
18139;DHT22;9195;53.176;9.486;2023-01-08T11:46:55;18.40;99.90
18139;DHT22;9195;53.176;9.486;2023-01-08T11:49:55;18.70;99.90
18139;DHT22;9195;53.176;9.486;2023-01-08T11:58:25;19.80;99.90
18139;DHT22;9195;53.176;9.486;2023-01-08T12:01:01;19.80;99.90
18139;DHT22;9195;53.176;9.486;2023-01-08T12:06:27;20.10;99.90
18139;DHT22;9195;53.176;9.486;2023-01-08T12:11:50;20.20;99.90
18139;DHT22;9195;53.176;9.486;2023-01-08T12:14:31;20.10;99.90
18139;DHT22;9195;53.176;9.486;2023-01-08T12:17:22;20.40;99.90
18139;DHT22;9195;53.176;9.486;2023-01-08T12:22:50;20.00;99.80
18139;DHT22;9195;53.176;9.486;2023-01-08T12:28:00;20.30;98.80
18139;DHT22;9195;53.176;9.486;2023-01-08T12:33:02;20.20;97.90
18139;DHT22;9195;53.176;9.486;2023-01-08T12:35:37;20.40;97.70
18139;DHT22;9195;53.176;9.486;2023-01-08T12:38:12;20.30;96.70
18139;DHT22;9195;53.176;9.486;2023-01-08T12:40:44;20.30;95.90
18139;DHT22;9195;53.176;9.486;2023-01-08T12:43:21;20.40;95.40
18139;DHT22;9195;53.176;9.486;2023-01-08T12:45:51;20.30;95.40
18139;DHT22;9195;53.176;9.486;2023-01-08T12:48:23;20.00;95.30
18139;DHT22;9195;53.176;9.486;2023-01-08T12:51:07;19.80;94.90
18139;DHT22;9195;53.176;9.486;2023-01-08T12:59:45;19.60;94.30
18139;DHT22;9195;53.176;9.486;2023-01-08T13:04:57;19.00;94.40
18139;DHT22;9195;53.176;9.486;2023-01-08T13:07:43;18.70;94.50
18139;DHT22;9195;53.176;9.486;2023-01-08T13:10:31;18.80;94.90
18139;DHT22;9195;53.176;9.486;2023-01-08T13:12:58;18.50;95.40
18139;DHT22;9195;53.176;9.486;2023-01-08T13:15:27;18.50;95.00
18139;DHT22;9195;53.176;9.486;2023-01-08T13:17:56;18.30;95.10
18139;DHT22;9195;53.176;9.486;2023-01-08T13:20:27;17.80;94.90
18139;DHT22;9195;53.176;9.486;2023-01-08T13:22:55;16.80;95.70
18139;DHT22;9195;53.176;9.486;2023-01-08T13:25:26;16.40;96.20
18139;DHT22;9195;53.176;9.486;2023-01-08T13:27:52;16.30;96.50
18139;DHT22;9195;53.176;9.486;2023-01-08T13:30:38;16.40;96.90
18139;DHT22;9195;53.176;9.486;2023-01-08T13:33:27;16.20;96.90
18139;DHT22;9195;53.176;9.486;2023-01-08T13:36:26;16.20;97.60
18139;DHT22;9195;53.176;9.486;2023-01-08T13:39:17;16.50;96.50
18139;DHT22;9195;53.176;9.486;2023-01-08T13:41:58;16.40;96.40
18139;DHT22;9195;53.176;9.486;2023-01-08T13:44:29;16.00;97.00
18139;DHT22;9195;53.176;9.486;2023-01-08T13:47:01;15.80;97.10
18139;DHT22;9195;53.176;9.486;2023-01-08T13:49:31;15.40;97.90
18139;DHT22;9195;53.176;9.486;2023-01-08T13:51:58;15.20;98.00
18139;DHT22;9195;53.176;9.486;2023-01-08T13:54:36;15.00;98.50
18139;DHT22;9195;53.176;9.486;2023-01-08T13:57:16;15.30;98.90
18139;DHT22;9195;53.176;9.486;2023-01-08T13:59:51;15.90;98.20
18139;DHT22;9195;53.176;9.486;2023-01-08T14:02:26;16.30;97.40
18139;DHT22;9195;53.176;9.486;2023-01-08T14:04:53;16.40;97.70
18139;DHT22;9195;53.176;9.486;2023-01-08T14:07:19;16.30;97.20
18139;DHT22;9195;53.176;9.486;2023-01-08T14:09:45;16.50;97.70
18139;DHT22;9195;53.176;9.486;2023-01-08T14:12:15;16.40;97.50
18139;DHT22;9195;53.176;9.486;2023-01-08T14:14:59;16.70;97.30
18139;DHT22;9195;53.176;9.486;2023-01-08T14:17:30;17.00;97.50
18139;DHT22;9195;53.176;9.486;2023-01-08T14:19:56;17.30;96.70
18139;DHT22;9195;53.176;9.486;2023-01-08T14:22:31;17.10;96.80
18139;DHT22;9195;53.176;9.486;2023-01-08T14:25:00;16.10;97.30
18139;DHT22;9195;53.176;9.486;2023-01-08T14:27:28;16.30;97.90
18139;DHT22;9195;53.176;9.486;2023-01-08T14:29:54;16.90;97.00
18139;DHT22;9195;53.176;9.486;2023-01-08T14:32:25;17.10;97.00
18139;DHT22;9195;53.176;9.486;2023-01-08T14:34:53;17.50;97.00
18139;DHT22;9195;53.176;9.486;2023-01-08T14:37:19;17.70;96.40
18139;DHT22;9195;53.176;9.486;2023-01-08T14:39:46;17.40;96.40
18139;DHT22;9195;53.176;9.486;2023-01-08T14:45:28;15.30;98.60
18139;DHT22;9195;53.176;9.486;2023-01-08T14:48:11;13.90;99.90
18139;DHT22;9195;53.176;9.486;2023-01-08T14:50:42;12.90;99.90
18139;DHT22;9195;53.176;9.486;2023-01-08T14:53:24;12.30;99.90
18139;DHT22;9195;53.176;9.486;2023-01-08T14:55:53;11.90;99.90
18139;DHT22;9195;53.176;9.486;2023-01-08T14:58:22;11.40;99.90
18139;DHT22;9195;53.176;9.486;2023-01-08T15:00:53;11.00;99.90
18139;DHT22;9195;53.176;9.486;2023-01-08T15:03:36;10.80;99.90
18139;DHT22;9195;53.176;9.486;2023-01-08T15:06:02;10.50;99.90
18139;DHT22;9195;53.176;9.486;2023-01-08T15:08:42;10.30;99.90
18139;DHT22;9195;53.176;9.486;2023-01-08T15:13:43;9.90;99.90
18139;DHT22;9195;53.176;9.486;2023-01-08T15:16:16;9.70;99.90
18139;DHT22;9195;53.176;9.486;2023-01-08T15:18:51;9.50;99.90
18139;DHT22;9195;53.176;9.486;2023-01-08T15:21:27;9.40;99.90
18139;DHT22;9195;53.176;9.486;2023-01-08T15:23:54;9.30;99.90
18139;DHT22;9195;53.176;9.486;2023-01-08T15:26:21;9.20;99.90
18139;DHT22;9195;53.176;9.486;2023-01-08T15:29:04;9.10;99.90
18139;DHT22;9195;53.176;9.486;2023-01-08T15:34:08;9.10;99.90
18139;DHT22;9195;53.176;9.486;2023-01-08T15:36:34;9.00;99.90
18139;DHT22;9195;53.176;9.486;2023-01-08T15:39:00;9.10;99.90
18139;DHT22;9195;53.176;9.486;2023-01-08T15:41:33;9.00;99.90
18139;DHT22;9195;53.176;9.486;2023-01-08T15:44:17;9.00;99.90
18139;DHT22;9195;53.176;9.486;2023-01-08T15:46:43;9.10;99.90
18139;DHT22;9195;53.176;9.486;2023-01-08T15:49:08;9.10;99.90
18139;DHT22;9195;53.176;9.486;2023-01-08T15:51:38;9.10;99.90
18139;DHT22;9195;53.176;9.486;2023-01-08T15:54:10;9.10;99.90
18139;DHT22;9195;53.176;9.486;2023-01-08T15:56:36;9.10;99.90
18139;DHT22;9195;53.176;9.486;2023-01-08T15:59:01;9.10;99.90
18139;DHT22;9195;53.176;9.486;2023-01-08T16:01:27;9.10;99.90
18139;DHT22;9195;53.176;9.486;2023-01-08T16:03:53;9.00;99.90
18139;DHT22;9195;53.176;9.486;2023-01-08T16:06:18;9.00;99.90
18139;DHT22;9195;53.176;9.486;2023-01-08T16:08:44;9.00;99.90
18139;DHT22;9195;53.176;9.486;2023-01-08T16:11:12;9.00;99.90
18139;DHT22;9195;53.176;9.486;2023-01-08T16:13:38;9.00;99.90
18139;DHT22;9195;53.176;9.486;2023-01-08T16:16:14;9.10;99.90
18139;DHT22;9195;53.176;9.486;2023-01-08T16:18:40;9.20;99.90
18139;DHT22;9195;53.176;9.486;2023-01-08T16:21:08;9.20;99.90
18139;DHT22;9195;53.176;9.486;2023-01-08T16:23:35;9.20;99.90
18139;DHT22;9195;53.176;9.486;2023-01-08T16:26:27;9.20;99.90
18139;DHT22;9195;53.176;9.486;2023-01-08T16:28:53;9.30;99.90
18139;DHT22;9195;53.176;9.486;2023-01-08T16:31:19;9.40;99.90
18139;DHT22;9195;53.176;9.486;2023-01-08T16:33:45;9.30;99.90
18139;DHT22;9195;53.176;9.486;2023-01-08T16:36:10;9.30;99.90
18139;DHT22;9195;53.176;9.486;2023-01-08T16:38:36;9.30;99.90
18139;DHT22;9195;53.176;9.486;2023-01-08T16:41:03;9.30;99.90
18139;DHT22;9195;53.176;9.486;2023-01-08T16:43:29;9.40;99.90
18139;DHT22;9195;53.176;9.486;2023-01-08T16:45:55;9.00;99.90
18139;DHT22;9195;53.176;9.486;2023-01-08T16:48:22;8.30;99.90
18139;DHT22;9195;53.176;9.486;2023-01-08T16:50:47;7.80;99.90
18139;DHT22;9195;53.176;9.486;2023-01-08T16:53:14;7.50;99.90
18139;DHT22;9195;53.176;9.486;2023-01-08T16:55:41;7.40;99.90
18139;DHT22;9195;53.176;9.486;2023-01-08T16:58:07;7.30;99.90
18139;DHT22;9195;53.176;9.486;2023-01-08T17:00:34;7.30;99.90
18139;DHT22;9195;53.176;9.486;2023-01-08T17:03:01;7.20;99.90
18139;DHT22;9195;53.176;9.486;2023-01-08T17:05:27;7.20;99.90
18139;DHT22;9195;53.176;9.486;2023-01-08T17:07:53;7.10;99.90
18139;DHT22;9195;53.176;9.486;2023-01-08T17:10:20;7.00;99.90
18139;DHT22;9195;53.176;9.486;2023-01-08T17:12:46;6.90;99.90
18139;DHT22;9195;53.176;9.486;2023-01-08T17:15:12;6.90;99.90
18139;DHT22;9195;53.176;9.486;2023-01-08T17:17:37;6.80;99.90
18139;DHT22;9195;53.176;9.486;2023-01-08T17:20:03;6.70;99.90